createdAt,value
2024-03-14T00:00:00.408Z,2.17
2024-03-14T00:02:30.343Z,2.40
2024-03-14T00:04:59.740Z,2.10
2024-03-14T00:07:27.411Z,2.10
2024-03-14T00:09:55.088Z,1.87
2024-03-14T00:12:22.788Z,1.83
2024-03-14T00:14:52.310Z,2.17
2024-03-14T00:17:23.832Z,2.00
2024-03-14T00:19:52.428Z,2.27
2024-03-14T00:22:20.116Z,2.17
2024-03-14T00:24:47.904Z,2.10
2024-03-14T00:27:15.681Z,2.10
2024-03-14T00:29:43.919Z,2.07
2024-03-14T00:32:12.778Z,2.30
2024-03-14T00:34:41.585Z,2.03
2024-03-14T00:37:09.328Z,1.80
2024-03-14T00:39:37.605Z,2.00
2024-03-14T00:42:07.469Z,1.77
2024-03-14T00:44:35.116Z,1.90
2024-03-14T00:47:02.723Z,1.90
2024-03-14T00:49:30.412Z,1.80
2024-03-14T00:51:58.426Z,1.80
2024-03-14T00:54:26.028Z,2.00
2024-03-14T00:56:54.189Z,1.90
2024-03-14T00:59:23.102Z,1.80
2024-03-14T01:01:50.745Z,1.70
2024-03-14T01:04:18.967Z,1.97
2024-03-14T01:06:46.650Z,1.80
2024-03-14T01:09:14.451Z,1.90
2024-03-14T01:11:42.158Z,2.03
2024-03-14T01:14:09.801Z,2.40
2024-03-14T01:16:37.431Z,2.10
2024-03-14T01:19:07.859Z,2.30
2024-03-14T01:21:38.696Z,2.30
2024-03-14T01:24:06.423Z,2.00
2024-03-14T01:26:34.564Z,2.30
2024-03-14T01:29:02.676Z,2.40
2024-03-14T01:31:30.309Z,2.13
2024-03-14T01:33:57.981Z,2.30
2024-03-14T01:36:25.644Z,3.23
2024-03-14T01:38:53.554Z,2.20
2024-03-14T01:41:21.322Z,2.10
2024-03-14T01:43:58.870Z,2.07
2024-03-14T01:46:26.563Z,2.37
2024-03-14T01:48:54.426Z,2.23
2024-03-14T01:51:22.127Z,2.30
2024-03-14T01:53:49.770Z,3.10
2024-03-14T01:56:17.830Z,2.30
2024-03-14T01:58:45.828Z,3.73
2024-03-14T02:01:13.698Z,3.83
2024-03-14T02:03:41.813Z,2.60
2024-03-14T02:06:09.856Z,3.27
2024-03-14T02:08:37.494Z,2.10
2024-03-14T02:11:06.024Z,2.03
2024-03-14T02:13:33.682Z,2.07
2024-03-14T02:16:01.533Z,2.30
2024-03-14T02:18:29.221Z,2.17
2024-03-14T02:20:57.125Z,2.50
2024-03-14T02:23:24.992Z,2.23
2024-03-14T02:25:53.030Z,2.17
2024-03-14T02:28:20.616Z,2.83
2024-03-14T02:30:48.250Z,1.80
2024-03-14T02:33:15.917Z,2.07
2024-03-14T02:35:43.614Z,2.33
2024-03-14T02:38:11.205Z,2.10
2024-03-14T02:40:39.058Z,2.50
2024-03-14T02:43:06.685Z,2.20
2024-03-14T02:45:35.154Z,2.40
2024-03-14T02:48:05.381Z,2.10
2024-03-14T02:50:33.088Z,2.50
2024-03-14T02:53:00.692Z,1.83
2024-03-14T02:55:28.805Z,2.13
2024-03-14T02:57:56.374Z,2.50
2024-03-14T03:00:24.014Z,2.43
2024-03-14T03:02:53.208Z,2.30
2024-03-14T03:05:21.480Z,2.40
2024-03-14T03:07:50.109Z,2.50
2024-03-14T03:10:17.480Z,2.37
2024-03-14T03:12:45.720Z,2.50
2024-03-14T03:15:15.659Z,2.90
2024-03-14T03:17:43.418Z,2.67
2024-03-14T03:20:12.652Z,2.40
2024-03-14T03:22:58.272Z,3.10
2024-03-14T03:25:25.990Z,3.03
2024-03-14T03:27:52.783Z,2.83
2024-03-14T03:30:21.170Z,3.20
2024-03-14T03:32:48.032Z,3.10
2024-03-14T03:35:21.395Z,2.87
2024-03-14T03:37:48.936Z,3.13
2024-03-14T03:40:22.982Z,2.97
2024-03-14T03:42:49.672Z,3.30
2024-03-14T03:45:17.358Z,3.20
2024-03-14T03:47:44.114Z,3.53
2024-03-14T03:50:12.545Z,3.27
2024-03-14T03:52:40.177Z,3.60
2024-03-14T03:55:08.465Z,3.30
2024-03-14T03:57:35.175Z,3.07
2024-03-14T04:00:09.230Z,3.83
2024-03-14T04:02:35.982Z,3.90
2024-03-14T04:05:06.529Z,3.43
2024-03-14T04:07:35.904Z,3.30
2024-03-14T04:10:03.466Z,3.93
2024-03-14T04:12:31.798Z,3.63
2024-03-14T04:15:01.162Z,4.87
2024-03-14T04:17:29.173Z,4.53
2024-03-14T04:19:56.831Z,3.80
2024-03-14T04:22:24.386Z,3.73
2024-03-14T04:24:52.631Z,3.37
2024-03-14T04:27:21.552Z,3.83
2024-03-14T04:29:49.943Z,4.17
2024-03-14T04:32:18.409Z,4.70
2024-03-14T04:34:46.103Z,3.63
2024-03-14T04:37:13.935Z,5.83
2024-03-14T04:39:42.783Z,5.03
2024-03-14T04:42:11.737Z,3.90
2024-03-14T04:44:41.592Z,3.43
2024-03-14T04:47:11.196Z,3.30
2024-03-14T04:49:39.068Z,3.67
2024-03-14T04:52:06.694Z,4.70
2024-03-14T04:54:34.728Z,4.60
2024-03-14T04:57:02.943Z,4.23
2024-03-14T04:59:30.550Z,5.40
2024-03-14T05:01:58.527Z,5.03
2024-03-14T05:04:26.110Z,4.70
2024-03-14T05:06:53.677Z,4.33
2024-03-14T05:09:23.097Z,4.43
2024-03-14T05:11:51.215Z,4.57
2024-03-14T05:14:18.838Z,4.30
2024-03-14T05:16:46.879Z,3.97
2024-03-14T05:19:17.024Z,3.83
2024-03-14T05:21:46.396Z,3.80
2024-03-14T05:24:17.672Z,4.13
2024-03-14T05:26:45.760Z,5.23
2024-03-14T05:29:13.322Z,5.77
2024-03-14T05:31:40.981Z,5.43
2024-03-14T05:34:09.600Z,5.00
2024-03-14T05:36:37.335Z,5.27
2024-03-14T05:39:05.708Z,4.40
2024-03-14T05:41:33.476Z,4.47
2024-03-14T05:44:01.068Z,4.53
2024-03-14T05:46:28.805Z,4.23
2024-03-14T05:48:57.493Z,3.63
2024-03-14T05:51:25.228Z,3.87
2024-03-14T05:53:52.868Z,4.03
2024-03-14T05:56:20.685Z,3.53
2024-03-14T05:58:48.281Z,3.60
2024-03-14T06:01:16.015Z,3.80
2024-03-14T06:03:44.999Z,4.00
2024-03-14T06:06:14.819Z,4.07
2024-03-14T06:08:43.578Z,3.57
2024-03-14T06:11:11.337Z,3.93
2024-03-14T06:13:41.234Z,4.23
2024-03-14T06:16:09.881Z,3.83
2024-03-14T06:18:37.787Z,3.70
2024-03-14T06:21:06.193Z,3.63
2024-03-14T06:23:33.806Z,4.43
2024-03-14T06:26:01.786Z,4.50
2024-03-14T06:28:29.382Z,4.40
2024-03-14T06:30:57.078Z,3.93
2024-03-14T06:33:24.834Z,3.73
2024-03-14T06:35:52.468Z,3.60
2024-03-14T06:38:20.438Z,4.83
2024-03-14T06:40:48.010Z,3.93
2024-03-14T06:43:16.037Z,4.33
2024-03-14T06:45:44.340Z,4.00
2024-03-14T06:48:11.967Z,4.30
2024-03-14T06:50:39.582Z,3.83
2024-03-14T06:53:07.189Z,3.67
2024-03-14T06:55:35.085Z,3.50
2024-03-14T06:58:02.696Z,3.20
2024-03-14T07:00:31.975Z,4.47
2024-03-14T07:02:59.844Z,4.33
2024-03-14T07:05:29.436Z,4.20
2024-03-14T07:07:57.055Z,4.00
2024-03-14T07:10:24.667Z,4.30
2024-03-14T07:12:52.269Z,5.37
2024-03-14T07:15:20.106Z,4.47
2024-03-14T07:17:48.101Z,5.60
2024-03-14T07:20:18.904Z,5.10
2024-03-14T07:22:46.974Z,4.60
2024-03-14T07:25:16.945Z,4.80
2024-03-14T07:27:45.721Z,4.53
2024-03-14T07:30:16.064Z,4.80
2024-03-14T07:32:43.859Z,3.87
2024-03-14T07:35:15.274Z,4.80
2024-03-14T07:37:46.865Z,4.97
2024-03-14T07:40:17.870Z,4.80
2024-03-14T07:42:45.777Z,5.33
2024-03-14T07:45:18.073Z,5.57
2024-03-14T07:47:46.163Z,4.70
2024-03-14T07:50:13.748Z,5.57
2024-03-14T07:52:41.363Z,5.40
2024-03-14T07:55:10.642Z,4.37
2024-03-14T07:57:38.349Z,5.13
2024-03-14T08:00:09.644Z,5.07
2024-03-14T08:02:40.346Z,5.20
2024-03-14T08:05:09.280Z,4.47
2024-03-14T08:07:38.621Z,5.13
2024-03-14T08:10:06.315Z,4.83
2024-03-14T08:12:34.678Z,4.90
2024-03-14T08:15:12.643Z,5.00
2024-03-14T08:17:41.802Z,4.40
2024-03-14T08:20:10.543Z,4.67
2024-03-14T08:22:39.066Z,5.40
2024-03-14T08:25:16.772Z,4.33
2024-03-14T08:27:45.192Z,5.33
2024-03-14T08:30:13.226Z,4.10
2024-03-14T08:32:40.903Z,4.93
2024-03-14T08:35:11.486Z,3.90
2024-03-14T08:37:39.101Z,4.20
2024-03-14T08:40:06.977Z,4.10
2024-03-14T08:42:42.918Z,4.37
2024-03-14T08:45:15.168Z,4.30
2024-03-14T08:47:43.682Z,4.13
2024-03-14T08:50:11.803Z,3.90
2024-03-14T08:52:39.552Z,3.83
2024-03-14T08:55:24.186Z,4.30
2024-03-14T08:57:52.190Z,3.77
2024-03-14T09:00:22.963Z,3.90
2024-03-14T09:02:51.109Z,4.40
2024-03-14T09:05:18.806Z,3.43
2024-03-14T09:07:47.107Z,4.10
2024-03-14T09:10:20.593Z,4.30
2024-03-14T09:12:49.706Z,4.43
2024-03-14T09:15:19.811Z,4.17
2024-03-14T09:17:47.685Z,4.07
2024-03-14T09:20:17.324Z,4.57
2024-03-14T09:22:45.933Z,3.87
2024-03-14T09:25:15.172Z,4.17
2024-03-14T09:27:43.614Z,4.80
2024-03-14T09:30:12.842Z,5.10
2024-03-14T09:32:41.348Z,4.60
2024-03-14T09:35:12.753Z,4.27
2024-03-14T09:37:40.378Z,4.43
2024-03-14T09:40:08.238Z,4.20
2024-03-14T09:42:36.666Z,4.20
2024-03-14T09:45:05.005Z,4.40
2024-03-14T09:47:33.141Z,4.17
2024-03-14T09:50:00.772Z,3.63
2024-03-14T09:52:28.543Z,3.70
2024-03-14T09:54:56.408Z,4.63
2024-03-14T09:57:24.103Z,4.20
2024-03-14T09:59:55.123Z,4.10
2024-03-14T10:02:23.973Z,3.87
2024-03-14T10:04:51.604Z,4.20
2024-03-14T10:07:20.235Z,3.73
2024-03-14T10:09:50.015Z,4.10
2024-03-14T10:12:18.594Z,3.60
2024-03-14T10:14:47.368Z,4.80
2024-03-14T10:17:15.100Z,4.13
2024-03-14T10:19:42.762Z,3.87
2024-03-14T10:22:11.531Z,3.87
2024-03-14T10:24:39.218Z,4.60
2024-03-14T10:27:07.099Z,4.43
2024-03-14T10:29:37.663Z,4.20
2024-03-14T10:32:05.667Z,4.60
2024-03-14T10:34:33.614Z,4.17
2024-03-14T10:37:01.732Z,4.20
2024-03-14T10:39:29.482Z,5.10
2024-03-14T10:41:57.481Z,5.10
2024-03-14T10:44:26.029Z,4.60
2024-03-14T10:46:53.743Z,4.60
2024-03-14T10:49:21.975Z,3.93
2024-03-14T10:51:50.770Z,3.90
2024-03-14T10:54:18.711Z,5.30
2024-03-14T10:56:47.806Z,5.80
2024-03-14T10:59:15.695Z,6.00
2024-03-14T11:01:50.956Z,6.03
2024-03-14T11:04:18.716Z,5.77
2024-03-14T11:06:46.412Z,7.30
2024-03-14T11:09:14.864Z,6.70
2024-03-14T11:11:42.719Z,6.83
2024-03-14T11:14:12.607Z,6.87
2024-03-14T11:16:41.462Z,6.87
2024-03-14T11:19:09.637Z,7.63
2024-03-14T11:21:38.419Z,6.93
2024-03-14T11:24:06.830Z,6.10
2024-03-14T11:26:37.978Z,6.40
2024-03-14T11:29:05.779Z,6.33
2024-03-14T11:31:40.567Z,6.20
2024-03-14T11:34:10.090Z,5.83
2024-03-14T11:36:38.507Z,6.00
2024-03-14T11:39:17.161Z,5.50
2024-03-14T11:41:44.923Z,5.43
2024-03-14T11:44:16.630Z,6.10
2024-03-14T11:46:45.608Z,5.33
2024-03-14T11:49:16.628Z,6.47
2024-03-14T11:51:45.330Z,7.23
2024-03-14T11:54:12.953Z,7.60
2024-03-14T11:56:41.343Z,8.10
2024-03-14T11:59:09.559Z,7.20
2024-03-14T12:01:47.421Z,7.40
2024-03-14T12:04:18.683Z,6.47
2024-03-14T12:06:47.615Z,6.80
2024-03-14T12:09:22.066Z,5.93
2024-03-14T12:11:50.222Z,6.90
2024-03-14T12:14:18.073Z,6.30
2024-03-14T12:16:46.855Z,6.03
2024-03-14T12:19:17.055Z,6.03
2024-03-14T12:21:44.880Z,5.90
2024-03-14T12:24:14.202Z,5.13
2024-03-14T12:26:43.325Z,4.97
2024-03-14T12:29:11.255Z,4.67
2024-03-14T12:31:38.884Z,4.80
2024-03-14T12:34:07.334Z,5.10
2024-03-14T12:36:35.021Z,5.37
2024-03-14T12:39:02.707Z,4.67
2024-03-14T12:41:31.149Z,4.47
2024-03-14T12:43:58.747Z,4.73
2024-03-14T12:46:27.233Z,4.77
2024-03-14T12:48:56.557Z,4.53
2024-03-14T12:51:25.840Z,4.73
2024-03-14T12:53:57.426Z,4.60
2024-03-14T12:56:25.308Z,4.60
2024-03-14T12:58:53.522Z,4.80
2024-03-14T13:01:22.614Z,4.30
2024-03-14T13:03:52.095Z,4.73
2024-03-14T13:06:22.058Z,4.37
2024-03-14T13:08:49.744Z,4.90
2024-03-14T13:11:17.498Z,4.73
2024-03-14T13:13:45.314Z,4.70
2024-03-14T13:16:17.294Z,4.63
2024-03-14T13:18:45.037Z,4.10
2024-03-14T13:21:13.091Z,4.70
2024-03-14T13:23:42.184Z,5.00
2024-03-14T13:26:13.782Z,5.13
2024-03-14T13:28:42.195Z,5.33
2024-03-14T13:31:10.270Z,4.50
2024-03-14T13:33:38.155Z,4.10
2024-03-14T13:36:06.505Z,4.30
2024-03-14T13:38:35.355Z,4.43
2024-03-14T13:41:03.055Z,3.80
2024-03-14T13:43:30.688Z,3.97
2024-03-14T13:45:58.769Z,4.17
2024-03-14T13:48:27.741Z,4.00
2024-03-14T13:50:56.797Z,3.70
2024-03-14T13:55:58.210Z,3.83
2024-03-14T13:58:26.666Z,4.17
2024-03-14T14:00:57.608Z,3.33
2024-03-14T14:03:25.603Z,3.30
2024-03-14T14:05:56.307Z,3.20
2024-03-14T14:08:25.266Z,2.63
2024-03-14T14:10:53.364Z,3.30
2024-03-14T14:13:21.598Z,3.70
2024-03-14T14:15:49.279Z,3.20
2024-03-14T14:18:17.682Z,2.90
2024-03-14T14:20:45.954Z,2.90
2024-03-14T14:23:13.689Z,2.87
2024-03-14T14:25:41.316Z,2.90
2024-03-14T14:28:09.243Z,2.80
2024-03-14T14:30:37.476Z,2.80
2024-03-14T14:33:05.631Z,2.47
2024-03-14T14:35:33.314Z,2.50
2024-03-14T14:38:00.915Z,2.43
2024-03-14T14:40:28.508Z,2.33
2024-03-14T14:42:57.876Z,2.30
2024-03-14T14:45:26.246Z,2.30
2024-03-14T14:47:54.188Z,2.50
2024-03-14T14:50:21.796Z,2.20
2024-03-14T14:52:49.610Z,2.40
2024-03-14T14:55:19.198Z,2.30
2024-03-14T14:57:47.572Z,2.20
2024-03-14T15:00:15.705Z,2.13
2024-03-14T15:02:43.461Z,2.10
2024-03-14T15:05:11.335Z,2.23
2024-03-14T15:07:42.635Z,2.67
2024-03-14T15:10:12.743Z,2.88
2024-03-14T15:12:49.856Z,2.40
2024-03-14T15:15:23.610Z,2.30
2024-03-14T15:17:52.341Z,2.13
2024-03-14T15:20:22.467Z,2.22
2024-03-14T15:22:51.408Z,2.60
2024-03-14T15:25:20.051Z,2.05
2024-03-14T15:27:47.698Z,2.10
2024-03-14T15:30:17.264Z,2.42
2024-03-14T15:32:46.524Z,2.15
2024-03-14T15:35:15.573Z,2.15
2024-03-14T15:37:44.075Z,1.75
2024-03-14T15:40:14.395Z,1.95
2024-03-14T15:42:42.077Z,1.67
2024-03-14T15:45:13.966Z,1.42
2024-03-14T15:47:41.717Z,1.50
2024-03-14T15:50:11.978Z,1.77
2024-03-14T15:52:40.311Z,1.80
2024-03-14T15:55:09.588Z,1.97
2024-03-14T15:57:38.879Z,1.70
2024-03-14T16:00:09.554Z,1.50
2024-03-14T16:02:41.900Z,1.90
2024-03-14T16:05:11.220Z,1.53
2024-03-14T16:07:39.101Z,1.70
2024-03-14T16:10:06.948Z,1.90
2024-03-14T16:12:34.614Z,1.90
2024-03-14T16:15:02.414Z,1.40
2024-03-14T16:17:30.504Z,1.70
2024-03-14T16:19:58.342Z,1.80
2024-03-14T16:22:26.144Z,1.70
2024-03-14T16:24:53.802Z,1.80
2024-03-14T16:27:22.035Z,1.87
2024-03-14T16:29:51.792Z,2.10
2024-03-14T16:32:19.394Z,2.03
2024-03-14T16:34:46.999Z,1.80
2024-03-14T16:37:14.561Z,1.70
2024-03-14T16:39:42.263Z,1.77
2024-03-14T16:42:11.414Z,1.70
2024-03-14T16:44:41.064Z,1.80
2024-03-14T16:47:10.264Z,1.60
2024-03-14T16:49:37.849Z,1.90
2024-03-14T16:52:05.847Z,1.90
2024-03-14T16:54:34.356Z,1.80
2024-03-14T16:57:02.010Z,2.70
2024-03-14T16:59:29.633Z,1.70
2024-03-14T17:01:58.323Z,1.80
2024-03-14T17:04:26.788Z,1.80
2024-03-14T17:06:54.444Z,2.10
2024-03-14T17:09:22.626Z,2.10
2024-03-14T17:11:50.334Z,2.00
2024-03-14T17:14:17.944Z,1.83
2024-03-14T17:16:50.309Z,1.77
2024-03-14T17:19:21.783Z,1.70
2024-03-14T17:21:51.080Z,1.60
2024-03-14T17:24:19.116Z,1.80
2024-03-14T17:26:46.761Z,1.83
2024-03-14T17:29:14.590Z,1.57
2024-03-14T17:31:43.360Z,2.00
2024-03-14T17:34:11.089Z,1.90
2024-03-14T17:36:38.847Z,2.10
2024-03-14T17:39:11.878Z,2.20
2024-03-14T17:41:39.657Z,1.97
2024-03-14T17:44:07.245Z,2.43
2024-03-14T17:46:34.848Z,4.00
2024-03-14T17:49:02.552Z,4.23
2024-03-14T17:51:30.172Z,3.50
2024-03-14T17:53:59.666Z,2.70
2024-03-14T17:56:38.191Z,2.70
2024-03-14T17:59:11.565Z,2.70
2024-03-14T18:01:39.778Z,2.60
2024-03-14T18:04:13.292Z,2.20
2024-03-14T18:06:43.097Z,2.57
2024-03-14T18:09:12.225Z,2.40
2024-03-14T18:11:40.245Z,2.50
2024-03-14T18:14:07.900Z,2.53
2024-03-14T18:16:35.508Z,2.63
2024-03-14T18:19:05.411Z,2.70
2024-03-14T18:21:34.302Z,3.33
2024-03-14T18:24:02.012Z,3.40
2024-03-14T18:26:29.606Z,3.20
2024-03-14T18:28:57.170Z,3.30
2024-03-14T18:31:24.781Z,2.97
2024-03-14T18:33:52.444Z,3.50
2024-03-14T18:36:22.704Z,3.63
2024-03-14T18:38:51.093Z,4.43
2024-03-14T18:41:20.643Z,3.60
2024-03-14T18:43:48.350Z,3.60
2024-03-14T18:46:17.458Z,3.30
2024-03-14T18:48:45.147Z,3.50
2024-03-14T18:51:14.648Z,2.90
2024-03-14T18:53:43.326Z,2.80
2024-03-14T18:56:10.954Z,3.00
2024-03-14T18:58:38.873Z,2.47
2024-03-14T19:01:10.005Z,2.70
2024-03-14T19:03:37.706Z,2.90
2024-03-14T19:06:05.355Z,3.10
2024-03-14T19:08:33.113Z,4.10
2024-03-14T19:11:00.750Z,3.20
2024-03-14T19:13:29.719Z,3.23
2024-03-14T19:15:57.952Z,3.43
2024-03-14T19:18:29.612Z,3.77
2024-03-14T19:20:57.246Z,3.47
2024-03-14T19:23:24.817Z,3.90
2024-03-14T19:25:52.459Z,3.80
2024-03-14T19:28:20.066Z,4.17
2024-03-14T19:30:48.245Z,3.43
2024-03-14T19:33:16.125Z,4.40
2024-03-14T19:35:44.424Z,4.20
2024-03-14T19:38:12.935Z,4.40
2024-03-14T19:40:40.546Z,4.03
2024-03-14T19:43:08.117Z,4.50
2024-03-14T19:45:39.215Z,3.83
2024-03-14T19:48:07.380Z,4.47
2024-03-14T19:50:35.051Z,4.23
2024-03-14T19:53:02.826Z,4.80
2024-03-14T19:55:31.298Z,4.83
2024-03-14T19:57:58.982Z,4.83
2024-03-14T20:00:26.591Z,5.13
2024-03-14T20:02:54.198Z,5.37
2024-03-14T20:05:21.777Z,4.20
2024-03-14T20:07:51.488Z,4.40
2024-03-14T20:10:25.345Z,5.30
2024-03-14T20:12:54.733Z,4.67
2024-03-14T20:15:22.949Z,4.50
2024-03-14T20:17:50.561Z,4.60
2024-03-14T20:20:18.391Z,4.70
2024-03-14T20:22:46.041Z,4.77
2024-03-14T20:25:14.548Z,4.53
2024-03-14T20:27:42.313Z,4.57
2024-03-14T20:30:13.794Z,4.57
2024-03-14T20:32:42.587Z,4.57
2024-03-14T20:35:10.226Z,5.50
2024-03-14T20:37:37.899Z,6.67
2024-03-14T20:40:06.214Z,6.13
2024-03-14T20:42:35.158Z,6.03
2024-03-14T20:45:03.150Z,5.93
2024-03-14T20:47:31.084Z,6.13
2024-03-14T20:49:58.709Z,5.80
2024-03-14T20:52:27.598Z,5.47
2024-03-14T20:54:56.241Z,5.43
2024-03-14T20:57:24.636Z,5.30
2024-03-14T20:59:54.048Z,5.10
2024-03-14T21:02:25.533Z,6.10
2024-03-14T21:04:53.413Z,5.67
2024-03-14T21:07:21.023Z,5.40
2024-03-14T21:09:52.501Z,5.17
2024-03-14T21:12:23.913Z,4.53
2024-03-14T21:14:52.415Z,5.37
2024-03-14T21:17:20.182Z,5.07
2024-03-14T21:19:48.442Z,4.90
2024-03-14T21:22:17.030Z,4.70
2024-03-14T21:24:44.722Z,4.87
2024-03-14T21:27:12.959Z,4.40
2024-03-14T21:29:41.089Z,4.53
2024-03-14T21:32:08.722Z,4.90
2024-03-14T21:34:36.777Z,5.10
2024-03-14T21:37:07.890Z,4.90
2024-03-14T21:39:39.187Z,4.73
2024-03-14T21:42:08.216Z,4.17
2024-03-14T21:44:40.219Z,4.67
2024-03-14T21:47:07.850Z,4.23
2024-03-14T21:49:35.430Z,4.80
2024-03-14T21:52:05.241Z,4.97
2024-03-14T21:54:33.179Z,4.37
2024-03-14T21:57:00.907Z,4.03
2024-03-14T21:59:28.532Z,4.70
2024-03-14T22:01:56.211Z,5.60
2024-03-14T22:04:23.893Z,5.00
2024-03-14T22:06:51.526Z,5.20
2024-03-14T22:09:18.205Z,5.77
2024-03-14T22:11:45.821Z,5.33
2024-03-14T22:14:13.375Z,5.53
2024-03-14T22:16:41.079Z,6.10
2024-03-14T22:19:11.181Z,5.50
2024-03-14T22:21:41.459Z,5.47
2024-03-14T22:24:09.859Z,4.90
2024-03-14T22:26:37.742Z,5.37
2024-03-14T22:29:05.356Z,5.27
2024-03-14T22:31:33.025Z,5.07
2024-03-14T22:34:00.733Z,4.87
2024-03-14T22:36:28.633Z,4.00
2024-03-14T22:38:57.889Z,4.27
2024-03-14T22:41:26.154Z,4.03
2024-03-14T22:43:54.086Z,4.70
2024-03-14T22:46:22.354Z,4.03
2024-03-14T22:48:49.992Z,4.00
2024-03-14T22:51:17.613Z,4.67
2024-03-14T22:53:45.856Z,3.87
2024-03-14T22:56:13.468Z,4.27
2024-03-14T22:58:41.738Z,4.17
2024-03-14T23:01:09.782Z,4.10
2024-03-14T23:03:39.218Z,3.87
2024-03-14T23:06:07.966Z,3.83
2024-03-14T23:08:36.042Z,4.40
2024-03-14T23:11:04.940Z,4.00
2024-03-14T23:13:32.613Z,3.70
2024-03-14T23:16:01.125Z,4.07
2024-03-14T23:18:32.189Z,3.80
2024-03-14T23:21:00.479Z,3.40
2024-03-14T23:23:28.245Z,3.60
2024-03-14T23:25:57.067Z,3.47
2024-03-14T23:28:25.183Z,3.80
2024-03-14T23:30:53.286Z,3.20
2024-03-14T23:33:21.240Z,3.27
2024-03-14T23:35:49.078Z,3.03
2024-03-14T23:38:17.995Z,3.27
2024-03-14T23:40:46.006Z,3.73
2024-03-14T23:43:14.946Z,3.17
2024-03-14T23:45:42.949Z,3.57
2024-03-14T23:48:13.195Z,3.50
2024-03-14T23:50:40.967Z,3.60
2024-03-14T23:53:08.601Z,3.50
2024-03-14T23:55:38.156Z,3.83
2024-03-14T23:58:07.412Z,3.57
